sensor_id;sensor_type;location;lat;lon;timestamp;temperature;humidity
37782;DHT22;23621;50.878;4.584;2023-05-10T00:01:10;20.30;80.20
37782;DHT22;23621;50.878;4.584;2023-05-10T00:03:58;20.10;80.10
37782;DHT22;23621;50.878;4.584;2023-05-10T00:06:45;20.20;80.30
37782;DHT22;23621;50.878;4.584;2023-05-10T00:09:32;20.10;80.20
37782;DHT22;23621;50.878;4.584;2023-05-10T00:12:19;20.10;80.20
37782;DHT22;23621;50.878;4.584;2023-05-10T00:15:07;20.20;80.30
37782;DHT22;23621;50.878;4.584;2023-05-10T00:17:55;20.20;80.30
37782;DHT22;23621;50.878;4.584;2023-05-10T00:20:42;20.30;80.20
37782;DHT22;23621;50.878;4.584;2023-05-10T00:23:29;20.20;80.10
37782;DHT22;23621;50.878;4.584;2023-05-10T00:26:16;20.20;80.20
37782;DHT22;23621;50.878;4.584;2023-05-10T00:29:04;20.20;80.20
37782;DHT22;23621;50.878;4.584;2023-05-10T00:31:51;20.10;80.20
37782;DHT22;23621;50.878;4.584;2023-05-10T00:34:38;20.20;80.40
37782;DHT22;23621;50.878;4.584;2023-05-10T00:37:25;20.10;80.40
37782;DHT22;23621;50.878;4.584;2023-05-10T00:40:13;20.10;80.40
37782;DHT22;23621;50.878;4.584;2023-05-10T00:43:01;20.20;80.50
37782;DHT22;23621;50.878;4.584;2023-05-10T00:45:48;20.30;80.40
37782;DHT22;23621;50.878;4.584;2023-05-10T00:48:36;20.40;80.40
37782;DHT22;23621;50.878;4.584;2023-05-10T00:51:24;20.40;80.00
37782;DHT22;23621;50.878;4.584;2023-05-10T00:54:12;20.40;79.90
37782;DHT22;23621;50.878;4.584;2023-05-10T00:57:00;20.50;80.00
37782;DHT22;23621;50.878;4.584;2023-05-10T00:59:48;20.50;79.80
37782;DHT22;23621;50.878;4.584;2023-05-10T01:02:36;20.50;79.80
37782;DHT22;23621;50.878;4.584;2023-05-10T01:05:23;20.40;79.80
37782;DHT22;23621;50.878;4.584;2023-05-10T01:08:11;20.40;79.80
37782;DHT22;23621;50.878;4.584;2023-05-10T01:10:58;20.30;79.90
37782;DHT22;23621;50.878;4.584;2023-05-10T01:13:52;20.40;80.10
37782;DHT22;23621;50.878;4.584;2023-05-10T01:16:40;20.40;80.10
37782;DHT22;23621;50.878;4.584;2023-05-10T01:19:29;20.50;80.00
37782;DHT22;23621;50.878;4.584;2023-05-10T01:25:51;20.60;79.80
37782;DHT22;23621;50.878;4.584;2023-05-10T01:32:19;20.40;79.80
37782;DHT22;23621;50.878;4.584;2023-05-10T01:35:23;20.40;79.80
37782;DHT22;23621;50.878;4.584;2023-05-10T01:41:55;20.20;80.00
37782;DHT22;23621;50.878;4.584;2023-05-10T01:45:11;20.20;80.10
37782;DHT22;23621;50.878;4.584;2023-05-10T01:48:13;20.20;80.30
37782;DHT22;23621;50.878;4.584;2023-05-10T01:51:02;20.10;80.20
37782;DHT22;23621;50.878;4.584;2023-05-10T01:53:51;20.10;80.30
37782;DHT22;23621;50.878;4.584;2023-05-10T01:56:41;20.10;80.30
37782;DHT22;23621;50.878;4.584;2023-05-10T01:59:34;20.10;80.30
37782;DHT22;23621;50.878;4.584;2023-05-10T02:02:28;20.20;80.30
37782;DHT22;23621;50.878;4.584;2023-05-10T02:05:18;20.20;80.40
37782;DHT22;23621;50.878;4.584;2023-05-10T02:08:06;20.20;80.30
37782;DHT22;23621;50.878;4.584;2023-05-10T02:10:55;20.30;80.30
37782;DHT22;23621;50.878;4.584;2023-05-10T02:13:43;20.30;80.30
37782;DHT22;23621;50.878;4.584;2023-05-10T02:16:32;20.20;80.20
37782;DHT22;23621;50.878;4.584;2023-05-10T02:19:20;20.30;80.30
37782;DHT22;23621;50.878;4.584;2023-05-10T02:22:09;20.20;80.20
37782;DHT22;23621;50.878;4.584;2023-05-10T02:24:58;20.20;80.20
37782;DHT22;23621;50.878;4.584;2023-05-10T02:27:47;20.10;80.30
37782;DHT22;23621;50.878;4.584;2023-05-10T02:30:35;20.10;80.40
37782;DHT22;23621;50.878;4.584;2023-05-10T02:33:23;20.10;80.50
37782;DHT22;23621;50.878;4.584;2023-05-10T02:36:11;20.10;80.40
37782;DHT22;23621;50.878;4.584;2023-05-10T02:39:01;20.00;80.50
37782;DHT22;23621;50.878;4.584;2023-05-10T02:41:50;20.00;80.60
37782;DHT22;23621;50.878;4.584;2023-05-10T02:44:39;20.00;80.60
37782;DHT22;23621;50.878;4.584;2023-05-10T02:47:29;19.80;80.80
37782;DHT22;23621;50.878;4.584;2023-05-10T02:50:16;19.80;80.70
37782;DHT22;23621;50.878;4.584;2023-05-10T02:53:10;19.80;80.70
37782;DHT22;23621;50.878;4.584;2023-05-10T02:56:01;19.90;80.90
37782;DHT22;23621;50.878;4.584;2023-05-10T02:58:51;19.90;80.90
37782;DHT22;23621;50.878;4.584;2023-05-10T03:01:38;19.70;80.90
37782;DHT22;23621;50.878;4.584;2023-05-10T03:04:28;19.80;80.90
37782;DHT22;23621;50.878;4.584;2023-05-10T03:07:15;19.80;80.90
37782;DHT22;23621;50.878;4.584;2023-05-10T03:10:04;19.80;80.90
37782;DHT22;23621;50.878;4.584;2023-05-10T03:13:19;19.70;80.90
37782;DHT22;23621;50.878;4.584;2023-05-10T03:16:15;19.70;80.70
37782;DHT22;23621;50.878;4.584;2023-05-10T03:19:07;19.70;81.00
37782;DHT22;23621;50.878;4.584;2023-05-10T03:21:59;19.70;81.80
37782;DHT22;23621;50.878;4.584;2023-05-10T03:24:48;19.70;81.20
37782;DHT22;23621;50.878;4.584;2023-05-10T03:27:36;19.70;81.60
37782;DHT22;23621;50.878;4.584;2023-05-10T03:30:26;19.60;82.10
37782;DHT22;23621;50.878;4.584;2023-05-10T03:33:13;19.60;82.00
37782;DHT22;23621;50.878;4.584;2023-05-10T03:36:01;19.50;81.70
37782;DHT22;23621;50.878;4.584;2023-05-10T03:38:48;19.50;81.80
37782;DHT22;23621;50.878;4.584;2023-05-10T03:41:35;19.40;82.10
37782;DHT22;23621;50.878;4.584;2023-05-10T03:44:22;19.50;82.00
37782;DHT22;23621;50.878;4.584;2023-05-10T03:47:10;19.50;82.00
37782;DHT22;23621;50.878;4.584;2023-05-10T03:49:57;19.40;82.90
37782;DHT22;23621;50.878;4.584;2023-05-10T03:52:44;19.40;82.40
37782;DHT22;23621;50.878;4.584;2023-05-10T03:55:32;19.40;82.40
37782;DHT22;23621;50.878;4.584;2023-05-10T03:58:21;19.40;82.20
37782;DHT22;23621;50.878;4.584;2023-05-10T04:01:08;19.40;82.00
37782;DHT22;23621;50.878;4.584;2023-05-10T04:03:55;19.50;82.00
37782;DHT22;23621;50.878;4.584;2023-05-10T04:06:43;19.60;81.90
37782;DHT22;23621;50.878;4.584;2023-05-10T04:09:30;19.70;81.80
37782;DHT22;23621;50.878;4.584;2023-05-10T04:12:17;19.60;81.70
37782;DHT22;23621;50.878;4.584;2023-05-10T04:15:05;19.60;81.80
37782;DHT22;23621;50.878;4.584;2023-05-10T04:17:53;19.60;81.80
37782;DHT22;23621;50.878;4.584;2023-05-10T04:20:40;19.70;81.70
37782;DHT22;23621;50.878;4.584;2023-05-10T04:23:27;19.60;81.70
37782;DHT22;23621;50.878;4.584;2023-05-10T04:26:15;19.60;81.70
37782;DHT22;23621;50.878;4.584;2023-05-10T04:29:02;19.60;81.80
37782;DHT22;23621;50.878;4.584;2023-05-10T04:31:50;19.60;81.70
37782;DHT22;23621;50.878;4.584;2023-05-10T04:34:37;19.70;81.70
37782;DHT22;23621;50.878;4.584;2023-05-10T04:37:25;19.80;81.60
37782;DHT22;23621;50.878;4.584;2023-05-10T04:40:12;19.80;81.30
37782;DHT22;23621;50.878;4.584;2023-05-10T04:42:59;19.80;81.20
37782;DHT22;23621;50.878;4.584;2023-05-10T04:45:47;19.80;81.40
37782;DHT22;23621;50.878;4.584;2023-05-10T04:48:34;19.80;81.30
37782;DHT22;23621;50.878;4.584;2023-05-10T04:51:21;19.80;81.30
37782;DHT22;23621;50.878;4.584;2023-05-10T04:54:08;19.90;81.30
37782;DHT22;23621;50.878;4.584;2023-05-10T04:56:56;19.90;81.20
37782;DHT22;23621;50.878;4.584;2023-05-10T04:59:43;20.00;81.20
37782;DHT22;23621;50.878;4.584;2023-05-10T05:02:30;20.00;81.20
37782;DHT22;23621;50.878;4.584;2023-05-10T05:05:18;20.10;81.30
37782;DHT22;23621;50.878;4.584;2023-05-10T05:08:05;20.10;81.20
37782;DHT22;23621;50.878;4.584;2023-05-10T05:10:52;20.20;81.20
37782;DHT22;23621;50.878;4.584;2023-05-10T05:13:40;20.20;81.10
37782;DHT22;23621;50.878;4.584;2023-05-10T05:16:29;20.20;81.70
37782;DHT22;23621;50.878;4.584;2023-05-10T05:19:17;20.20;80.90
37782;DHT22;23621;50.878;4.584;2023-05-10T05:22:06;20.10;80.80
37782;DHT22;23621;50.878;4.584;2023-05-10T05:24:55;20.10;80.90
37782;DHT22;23621;50.878;4.584;2023-05-10T05:27:42;20.20;81.10
37782;DHT22;23621;50.878;4.584;2023-05-10T05:30:29;20.10;80.90
37782;DHT22;23621;50.878;4.584;2023-05-10T05:33:17;20.10;80.90
37782;DHT22;23621;50.878;4.584;2023-05-10T05:36:05;20.10;81.10
37782;DHT22;23621;50.878;4.584;2023-05-10T05:38:52;20.10;81.10
37782;DHT22;23621;50.878;4.584;2023-05-10T05:41:39;20.10;81.00
37782;DHT22;23621;50.878;4.584;2023-05-10T05:44:27;20.00;80.90
37782;DHT22;23621;50.878;4.584;2023-05-10T05:47:15;20.00;81.00
37782;DHT22;23621;50.878;4.584;2023-05-10T05:50:03;20.00;81.00
37782;DHT22;23621;50.878;4.584;2023-05-10T05:52:50;20.00;80.90
37782;DHT22;23621;50.878;4.584;2023-05-10T05:55:38;19.90;80.90
37782;DHT22;23621;50.878;4.584;2023-05-10T05:58:25;20.00;81.10
37782;DHT22;23621;50.878;4.584;2023-05-10T06:01:12;20.00;80.90
37782;DHT22;23621;50.878;4.584;2023-05-10T06:04:00;20.00;80.90
37782;DHT22;23621;50.878;4.584;2023-05-10T06:06:47;19.90;81.00
37782;DHT22;23621;50.878;4.584;2023-05-10T06:09:34;19.80;81.10
37782;DHT22;23621;50.878;4.584;2023-05-10T06:12:22;19.90;81.20
37782;DHT22;23621;50.878;4.584;2023-05-10T06:15:09;19.90;81.20
37782;DHT22;23621;50.878;4.584;2023-05-10T06:17:57;19.80;81.30
37782;DHT22;23621;50.878;4.584;2023-05-10T06:20:44;19.90;81.40
37782;DHT22;23621;50.878;4.584;2023-05-10T06:23:31;20.00;81.40
37782;DHT22;23621;50.878;4.584;2023-05-10T06:26:19;20.10;81.30
37782;DHT22;23621;50.878;4.584;2023-05-10T06:29:07;20.20;81.30
37782;DHT22;23621;50.878;4.584;2023-05-10T06:31:55;20.20;81.30
37782;DHT22;23621;50.878;4.584;2023-05-10T06:34:42;20.30;81.40
37782;DHT22;23621;50.878;4.584;2023-05-10T06:37:30;20.40;81.40
37782;DHT22;23621;50.878;4.584;2023-05-10T06:40:18;20.40;81.20
37782;DHT22;23621;50.878;4.584;2023-05-10T06:43:05;20.40;81.30
37782;DHT22;23621;50.878;4.584;2023-05-10T06:45:53;20.40;81.30
37782;DHT22;23621;50.878;4.584;2023-05-10T06:48:40;20.40;81.40
37782;DHT22;23621;50.878;4.584;2023-05-10T06:51:28;20.40;81.40
37782;DHT22;23621;50.878;4.584;2023-05-10T06:54:15;20.40;81.30
37782;DHT22;23621;50.878;4.584;2023-05-10T06:57:02;20.40;81.30
37782;DHT22;23621;50.878;4.584;2023-05-10T06:59:57;20.40;81.20
37782;DHT22;23621;50.878;4.584;2023-05-10T07:02:44;20.40;81.10
37782;DHT22;23621;50.878;4.584;2023-05-10T07:05:32;20.40;80.90
37782;DHT22;23621;50.878;4.584;2023-05-10T07:08:19;20.40;80.50
37782;DHT22;23621;50.878;4.584;2023-05-10T07:11:06;20.30;80.10
37782;DHT22;23621;50.878;4.584;2023-05-10T07:13:54;20.30;80.30
37782;DHT22;23621;50.878;4.584;2023-05-10T07:16:41;20.30;80.30
37782;DHT22;23621;50.878;4.584;2023-05-10T07:19:29;20.40;81.20
37782;DHT22;23621;50.878;4.584;2023-05-10T07:22:16;20.30;80.40
37782;DHT22;23621;50.878;4.584;2023-05-10T07:25:04;20.40;80.30
37782;DHT22;23621;50.878;4.584;2023-05-10T07:27:51;20.40;80.00
37782;DHT22;23621;50.878;4.584;2023-05-10T07:30:39;20.40;80.20
37782;DHT22;23621;50.878;4.584;2023-05-10T07:33:26;20.30;80.10
37782;DHT22;23621;50.878;4.584;2023-05-10T07:36:14;20.30;80.10
37782;DHT22;23621;50.878;4.584;2023-05-10T07:39:01;20.20;80.00
37782;DHT22;23621;50.878;4.584;2023-05-10T07:41:48;20.20;80.00
37782;DHT22;23621;50.878;4.584;2023-05-10T07:44:36;20.20;80.00
37782;DHT22;23621;50.878;4.584;2023-05-10T07:47:23;20.00;79.90
37782;DHT22;23621;50.878;4.584;2023-05-10T07:50:10;20.00;80.00
37782;DHT22;23621;50.878;4.584;2023-05-10T07:52:58;19.90;80.00
37782;DHT22;23621;50.878;4.584;2023-05-10T07:55:54;19.80;79.80
37782;DHT22;23621;50.878;4.584;2023-05-10T07:58:41;19.80;80.10
37782;DHT22;23621;50.878;4.584;2023-05-10T08:01:31;19.80;80.00
37782;DHT22;23621;50.878;4.584;2023-05-10T08:04:20;19.80;80.00
37782;DHT22;23621;50.878;4.584;2023-05-10T08:07:08;19.90;79.90
37782;DHT22;23621;50.878;4.584;2023-05-10T08:09:55;19.90;79.70
37782;DHT22;23621;50.878;4.584;2023-05-10T08:12:43;19.90;79.60
37782;DHT22;23621;50.878;4.584;2023-05-10T08:15:31;19.90;79.70
37782;DHT22;23621;50.878;4.584;2023-05-10T08:18:19;19.90;79.60
37782;DHT22;23621;50.878;4.584;2023-05-10T08:21:08;20.00;79.70
37782;DHT22;23621;50.878;4.584;2023-05-10T08:23:55;20.00;79.60
37782;DHT22;23621;50.878;4.584;2023-05-10T08:26:43;20.00;79.50
37782;DHT22;23621;50.878;4.584;2023-05-10T08:29:30;20.00;79.50
37782;DHT22;23621;50.878;4.584;2023-05-10T08:32:32;20.10;79.60
37782;DHT22;23621;50.878;4.584;2023-05-10T08:35:19;20.10;79.50
37782;DHT22;23621;50.878;4.584;2023-05-10T08:38:07;20.20;79.50
37782;DHT22;23621;50.878;4.584;2023-05-10T08:40:54;20.30;79.40
37782;DHT22;23621;50.878;4.584;2023-05-10T08:43:46;20.30;79.50
37782;DHT22;23621;50.878;4.584;2023-05-10T08:46:34;20.30;79.50
37782;DHT22;23621;50.878;4.584;2023-05-10T08:49:25;20.40;79.60
37782;DHT22;23621;50.878;4.584;2023-05-10T08:52:15;20.40;79.60
37782;DHT22;23621;50.878;4.584;2023-05-10T08:55:03;20.40;79.60
37782;DHT22;23621;50.878;4.584;2023-05-10T08:57:51;20.40;79.60
37782;DHT22;23621;50.878;4.584;2023-05-10T09:00:38;20.50;79.80
37782;DHT22;23621;50.878;4.584;2023-05-10T09:03:25;20.60;79.80
37782;DHT22;23621;50.878;4.584;2023-05-10T09:06:13;20.70;80.50
37782;DHT22;23621;50.878;4.584;2023-05-10T09:09:01;20.70;79.60
37782;DHT22;23621;50.878;4.584;2023-05-10T09:11:50;20.70;79.60
37782;DHT22;23621;50.878;4.584;2023-05-10T09:14:38;20.70;79.60
37782;DHT22;23621;50.878;4.584;2023-05-10T09:17:27;20.80;79.50
37782;DHT22;23621;50.878;4.584;2023-05-10T09:20:16;20.90;79.50
37782;DHT22;23621;50.878;4.584;2023-05-10T09:23:04;20.90;79.50
37782;DHT22;23621;50.878;4.584;2023-05-10T09:26:03;20.90;79.50
37782;DHT22;23621;50.878;4.584;2023-05-10T09:28:55;20.90;79.40
37782;DHT22;23621;50.878;4.584;2023-05-10T09:31:45;20.80;79.20
37782;DHT22;23621;50.878;4.584;2023-05-10T09:34:37;20.70;78.80
37782;DHT22;23621;50.878;4.584;2023-05-10T09:37:30;20.60;78.90
37782;DHT22;23621;50.878;4.584;2023-05-10T09:40:22;20.50;79.00
37782;DHT22;23621;50.878;4.584;2023-05-10T09:43:09;20.50;79.20
37782;DHT22;23621;50.878;4.584;2023-05-10T09:45:57;20.50;79.30
37782;DHT22;23621;50.878;4.584;2023-05-10T09:48:46;20.60;79.40
37782;DHT22;23621;50.878;4.584;2023-05-10T09:51:34;20.60;79.40
37782;DHT22;23621;50.878;4.584;2023-05-10T09:54:22;20.70;79.30
37782;DHT22;23621;50.878;4.584;2023-05-10T09:57:20;20.70;79.40
37782;DHT22;23621;50.878;4.584;2023-05-10T10:00:08;20.70;79.30
37782;DHT22;23621;50.878;4.584;2023-05-10T10:02:58;20.70;79.40
37782;DHT22;23621;50.878;4.584;2023-05-10T10:05:47;20.60;79.50
37782;DHT22;23621;50.878;4.584;2023-05-10T10:08:35;20.50;79.60
37782;DHT22;23621;50.878;4.584;2023-05-10T10:11:23;20.60;79.60
37782;DHT22;23621;50.878;4.584;2023-05-10T10:14:11;20.70;79.50
37782;DHT22;23621;50.878;4.584;2023-05-10T10:17:00;20.70;79.30
37782;DHT22;23621;50.878;4.584;2023-05-10T10:19:51;20.70;78.90
37782;DHT22;23621;50.878;4.584;2023-05-10T10:22:38;20.70;79.10
37782;DHT22;23621;50.878;4.584;2023-05-10T10:25:26;20.60;79.30
37782;DHT22;23621;50.878;4.584;2023-05-10T10:28:21;20.60;79.40
37782;DHT22;23621;50.878;4.584;2023-05-10T10:34:26;20.70;79.50
37782;DHT22;23621;50.878;4.584;2023-05-10T10:37:15;20.70;79.40
37782;DHT22;23621;50.878;4.584;2023-05-10T10:40:34;20.60;79.20
37782;DHT22;23621;50.878;4.584;2023-05-10T10:43:26;20.70;79.30
37782;DHT22;23621;50.878;4.584;2023-05-10T10:46:15;20.70;79.50
37782;DHT22;23621;50.878;4.584;2023-05-10T10:49:10;20.70;79.40
37782;DHT22;23621;50.878;4.584;2023-05-10T10:55:19;20.70;79.50
37782;DHT22;23621;50.878;4.584;2023-05-10T10:58:10;20.80;79.60
37782;DHT22;23621;50.878;4.584;2023-05-10T11:01:18;20.80;79.60
37782;DHT22;23621;50.878;4.584;2023-05-10T11:07:16;20.80;79.40
37782;DHT22;23621;50.878;4.584;2023-05-10T11:10:06;20.80;79.50
37782;DHT22;23621;50.878;4.584;2023-05-10T11:13:04;20.90;79.60
37782;DHT22;23621;50.878;4.584;2023-05-10T11:15:53;20.90;79.80
37782;DHT22;23621;50.878;4.584;2023-05-10T11:18:41;21.00;79.90
37782;DHT22;23621;50.878;4.584;2023-05-10T11:21:50;21.00;79.90
37782;DHT22;23621;50.878;4.584;2023-05-10T11:24:37;21.00;79.90
37782;DHT22;23621;50.878;4.584;2023-05-10T11:27:25;21.10;79.90
37782;DHT22;23621;50.878;4.584;2023-05-10T11:30:12;21.20;80.00
37782;DHT22;23621;50.878;4.584;2023-05-10T11:33:01;21.20;80.00
37782;DHT22;23621;50.878;4.584;2023-05-10T11:35:48;21.20;79.90
37782;DHT22;23621;50.878;4.584;2023-05-10T11:38:36;21.30;80.10
37782;DHT22;23621;50.878;4.584;2023-05-10T11:41:24;21.30;80.10
37782;DHT22;23621;50.878;4.584;2023-05-10T11:44:12;21.30;80.30
37782;DHT22;23621;50.878;4.584;2023-05-10T11:47:02;21.30;80.40
37782;DHT22;23621;50.878;4.584;2023-05-10T11:49:51;21.30;80.30
37782;DHT22;23621;50.878;4.584;2023-05-10T11:52:38;21.40;80.40
37782;DHT22;23621;50.878;4.584;2023-05-10T11:55:26;21.50;80.30
37782;DHT22;23621;50.878;4.584;2023-05-10T11:58:20;21.50;80.20
37782;DHT22;23621;50.878;4.584;2023-05-10T12:01:09;21.50;80.50
37782;DHT22;23621;50.878;4.584;2023-05-10T12:03:58;21.70;80.50
37782;DHT22;23621;50.878;4.584;2023-05-10T12:06:47;21.80;80.50
37782;DHT22;23621;50.878;4.584;2023-05-10T12:09:34;21.90;80.40
37782;DHT22;23621;50.878;4.584;2023-05-10T12:12:45;22.00;80.00
37782;DHT22;23621;50.878;4.584;2023-05-10T12:15:32;22.10;80.00
37782;DHT22;23621;50.878;4.584;2023-05-10T12:18:23;22.10;80.00
37782;DHT22;23621;50.878;4.584;2023-05-10T12:21:12;22.30;80.20
37782;DHT22;23621;50.878;4.584;2023-05-10T12:24:01;22.40;79.80
37782;DHT22;23621;50.878;4.584;2023-05-10T12:26:51;22.40;79.50
37782;DHT22;23621;50.878;4.584;2023-05-10T12:29:41;22.50;79.50
37782;DHT22;23621;50.878;4.584;2023-05-10T12:32:41;22.50;79.60
37782;DHT22;23621;50.878;4.584;2023-05-10T12:35:32;22.50;79.10
37782;DHT22;23621;50.878;4.584;2023-05-10T12:41:17;22.60;78.80
37782;DHT22;23621;50.878;4.584;2023-05-10T12:44:04;22.60;78.70
37782;DHT22;23621;50.878;4.584;2023-05-10T12:46:52;22.60;78.70
37782;DHT22;23621;50.878;4.584;2023-05-10T12:49:39;22.80;78.90
37782;DHT22;23621;50.878;4.584;2023-05-10T12:52:27;22.80;78.90
37782;DHT22;23621;50.878;4.584;2023-05-10T12:55:14;22.90;78.90
37782;DHT22;23621;50.878;4.584;2023-05-10T12:58:02;23.00;78.80
37782;DHT22;23621;50.878;4.584;2023-05-10T13:00:49;23.00;79.30
37782;DHT22;23621;50.878;4.584;2023-05-10T13:03:38;23.00;78.50
37782;DHT22;23621;50.878;4.584;2023-05-10T13:06:25;22.90;78.50
37782;DHT22;23621;50.878;4.584;2023-05-10T13:09:13;22.90;78.50
37782;DHT22;23621;50.878;4.584;2023-05-10T13:12:00;22.90;78.70
37782;DHT22;23621;50.878;4.584;2023-05-10T13:14:47;23.00;78.70
37782;DHT22;23621;50.878;4.584;2023-05-10T13:17:34;23.00;78.60
37782;DHT22;23621;50.878;4.584;2023-05-10T13:20:22;23.00;78.20
37782;DHT22;23621;50.878;4.584;2023-05-10T13:23:09;23.00;78.00
37782;DHT22;23621;50.878;4.584;2023-05-10T13:25:57;23.00;77.90
37782;DHT22;23621;50.878;4.584;2023-05-10T13:28:44;22.90;77.60
37782;DHT22;23621;50.878;4.584;2023-05-10T13:31:33;22.90;77.80
37782;DHT22;23621;50.878;4.584;2023-05-10T13:34:20;22.90;77.70
37782;DHT22;23621;50.878;4.584;2023-05-10T13:37:08;22.80;77.70
37782;DHT22;23621;50.878;4.584;2023-05-10T13:39:55;22.80;77.60
37782;DHT22;23621;50.878;4.584;2023-05-10T13:42:42;22.70;77.30
37782;DHT22;23621;50.878;4.584;2023-05-10T13:45:29;22.80;77.50
37782;DHT22;23621;50.878;4.584;2023-05-10T13:48:16;22.70;77.50
37782;DHT22;23621;50.878;4.584;2023-05-10T13:51:04;22.80;77.30
37782;DHT22;23621;50.878;4.584;2023-05-10T13:53:51;22.80;76.80
37782;DHT22;23621;50.878;4.584;2023-05-10T13:56:39;22.80;76.70
37782;DHT22;23621;50.878;4.584;2023-05-10T13:59:28;22.80;76.80
37782;DHT22;23621;50.878;4.584;2023-05-10T14:02:16;22.90;76.70
37782;DHT22;23621;50.878;4.584;2023-05-10T14:05:04;22.90;76.50
37782;DHT22;23621;50.878;4.584;2023-05-10T14:07:51;23.00;76.50
37782;DHT22;23621;50.878;4.584;2023-05-10T14:10:38;23.00;76.10
37782;DHT22;23621;50.878;4.584;2023-05-10T14:13:26;23.10;76.30
37782;DHT22;23621;50.878;4.584;2023-05-10T14:16:14;23.10;76.30
37782;DHT22;23621;50.878;4.584;2023-05-10T14:19:02;23.00;76.30
37782;DHT22;23621;50.878;4.584;2023-05-10T14:21:49;23.10;76.70
37782;DHT22;23621;50.878;4.584;2023-05-10T14:24:38;23.10;76.50
37782;DHT22;23621;50.878;4.584;2023-05-10T14:27:26;23.20;76.70
37782;DHT22;23621;50.878;4.584;2023-05-10T14:30:13;23.30;76.80
37782;DHT22;23621;50.878;4.584;2023-05-10T14:33:02;23.30;76.70
37782;DHT22;23621;50.878;4.584;2023-05-10T14:35:49;23.30;76.40
37782;DHT22;23621;50.878;4.584;2023-05-10T14:38:37;23.30;75.70
37782;DHT22;23621;50.878;4.584;2023-05-10T14:41:24;23.30;75.50
37782;DHT22;23621;50.878;4.584;2023-05-10T14:44:11;23.10;75.10
37782;DHT22;23621;50.878;4.584;2023-05-10T14:46:58;23.10;75.20
37782;DHT22;23621;50.878;4.584;2023-05-10T14:49:46;23.10;75.20
37782;DHT22;23621;50.878;4.584;2023-05-10T14:52:34;23.00;74.80
37782;DHT22;23621;50.878;4.584;2023-05-10T14:55:21;22.80;73.80
37782;DHT22;23621;50.878;4.584;2023-05-10T14:58:09;22.70;74.00
37782;DHT22;23621;50.878;4.584;2023-05-10T15:00:56;22.70;74.20
37782;DHT22;23621;50.878;4.584;2023-05-10T15:03:44;22.60;74.30
37782;DHT22;23621;50.878;4.584;2023-05-10T15:06:32;22.60;74.50
37782;DHT22;23621;50.878;4.584;2023-05-10T15:09:20;22.70;74.80
37782;DHT22;23621;50.878;4.584;2023-05-10T15:12:07;22.70;75.00
37782;DHT22;23621;50.878;4.584;2023-05-10T15:14:55;22.80;75.30
37782;DHT22;23621;50.878;4.584;2023-05-10T15:17:42;22.80;75.30
37782;DHT22;23621;50.878;4.584;2023-05-10T15:20:29;22.80;75.00
37782;DHT22;23621;50.878;4.584;2023-05-10T15:23:17;22.70;74.80
37782;DHT22;23621;50.878;4.584;2023-05-10T15:26:04;22.70;74.90
37782;DHT22;23621;50.878;4.584;2023-05-10T15:28:52;22.50;74.80
37782;DHT22;23621;50.878;4.584;2023-05-10T15:31:39;22.40;75.60
37782;DHT22;23621;50.878;4.584;2023-05-10T15:34:26;22.10;76.20
37782;DHT22;23621;50.878;4.584;2023-05-10T15:37:15;21.90;76.60
37782;DHT22;23621;50.878;4.584;2023-05-10T15:40:03;21.80;77.00
37782;DHT22;23621;50.878;4.584;2023-05-10T15:42:51;21.80;77.50
37782;DHT22;23621;50.878;4.584;2023-05-10T15:45:38;21.70;77.40
37782;DHT22;23621;50.878;4.584;2023-05-10T15:48:25;21.70;77.20
37782;DHT22;23621;50.878;4.584;2023-05-10T15:51:12;21.70;77.10
37782;DHT22;23621;50.878;4.584;2023-05-10T15:53:59;21.50;75.90
37782;DHT22;23621;50.878;4.584;2023-05-10T15:56:54;21.20;75.40
37782;DHT22;23621;50.878;4.584;2023-05-10T15:59:41;21.20;75.50
37782;DHT22;23621;50.878;4.584;2023-05-10T16:02:28;21.20;75.70
37782;DHT22;23621;50.878;4.584;2023-05-10T16:05:16;21.10;75.10
37782;DHT22;23621;50.878;4.584;2023-05-10T16:08:04;21.10;75.50
37782;DHT22;23621;50.878;4.584;2023-05-10T16:10:51;21.20;76.00
37782;DHT22;23621;50.878;4.584;2023-05-10T16:13:39;21.20;75.90
37782;DHT22;23621;50.878;4.584;2023-05-10T16:16:26;21.20;76.20
37782;DHT22;23621;50.878;4.584;2023-05-10T16:19:13;21.20;75.50
37782;DHT22;23621;50.878;4.584;2023-05-10T16:22:01;21.20;75.40
37782;DHT22;23621;50.878;4.584;2023-05-10T16:24:50;21.20;75.50
37782;DHT22;23621;50.878;4.584;2023-05-10T16:27:39;21.20;75.70
37782;DHT22;23621;50.878;4.584;2023-05-10T16:30:27;21.30;75.90
37782;DHT22;23621;50.878;4.584;2023-05-10T16:33:16;21.30;76.10
37782;DHT22;23621;50.878;4.584;2023-05-10T16:36:03;21.30;75.90
37782;DHT22;23621;50.878;4.584;2023-05-10T16:38:52;21.30;76.20
37782;DHT22;23621;50.878;4.584;2023-05-10T16:41:39;21.30;76.40
37782;DHT22;23621;50.878;4.584;2023-05-10T16:44:26;21.30;76.40
37782;DHT22;23621;50.878;4.584;2023-05-10T16:47:14;21.40;76.60
37782;DHT22;23621;50.878;4.584;2023-05-10T16:50:02;21.40;76.80
37782;DHT22;23621;50.878;4.584;2023-05-10T16:52:50;21.40;76.70
37782;DHT22;23621;50.878;4.584;2023-05-10T16:55:37;21.40;76.70
37782;DHT22;23621;50.878;4.584;2023-05-10T16:58:25;21.40;76.60
37782;DHT22;23621;50.878;4.584;2023-05-10T17:01:12;21.40;76.70
37782;DHT22;23621;50.878;4.584;2023-05-10T17:03:59;21.40;76.70
37782;DHT22;23621;50.878;4.584;2023-05-10T17:06:47;21.40;76.70
37782;DHT22;23621;50.878;4.584;2023-05-10T17:09:34;21.40;76.90
37782;DHT22;23621;50.878;4.584;2023-05-10T17:12:21;21.40;77.10
37782;DHT22;23621;50.878;4.584;2023-05-10T17:15:09;21.40;77.20
37782;DHT22;23621;50.878;4.584;2023-05-10T17:17:56;21.40;77.20
37782;DHT22;23621;50.878;4.584;2023-05-10T17:20:44;21.40;77.30
37782;DHT22;23621;50.878;4.584;2023-05-10T17:23:31;21.30;77.40
37782;DHT22;23621;50.878;4.584;2023-05-10T17:26:18;21.30;77.60
37782;DHT22;23621;50.878;4.584;2023-05-10T17:29:05;21.30;77.70
37782;DHT22;23621;50.878;4.584;2023-05-10T17:31:52;21.30;77.70
37782;DHT22;23621;50.878;4.584;2023-05-10T17:34:40;21.30;77.80
37782;DHT22;23621;50.878;4.584;2023-05-10T17:37:28;21.30;77.80
37782;DHT22;23621;50.878;4.584;2023-05-10T17:40:15;21.30;78.00
37782;DHT22;23621;50.878;4.584;2023-05-10T17:43:03;21.40;78.20
37782;DHT22;23621;50.878;4.584;2023-05-10T17:45:50;21.40;78.40
37782;DHT22;23621;50.878;4.584;2023-05-10T17:48:37;21.40;78.50
37782;DHT22;23621;50.878;4.584;2023-05-10T17:51:25;21.40;78.50
37782;DHT22;23621;50.878;4.584;2023-05-10T17:54:13;21.40;78.60
37782;DHT22;23621;50.878;4.584;2023-05-10T17:57:00;21.40;78.50
37782;DHT22;23621;50.878;4.584;2023-05-10T17:59:49;21.40;78.50
37782;DHT22;23621;50.878;4.584;2023-05-10T18:02:37;21.40;78.60
37782;DHT22;23621;50.878;4.584;2023-05-10T18:05:24;21.40;78.50
37782;DHT22;23621;50.878;4.584;2023-05-10T18:08:11;21.40;78.60